sensor_id;sensor_type;location;lat;lon;timestamp;pressure;altitude;pressure_sealevel;temperature
62180;BMP280;48172;53.374;10.722;2022-10-17T00:00:44;102155.19;;;22.51
62180;BMP280;48172;53.374;10.722;2022-10-17T00:03:11;102148.50;;;22.52
62180;BMP280;48172;53.374;10.722;2022-10-17T00:05:42;102147.78;;;22.52
62180;BMP280;48172;53.374;10.722;2022-10-17T00:08:10;102140.03;;;22.50
62180;BMP280;48172;53.374;10.722;2022-10-17T00:10:38;102139.28;;;22.50
62180;BMP280;48172;53.374;10.722;2022-10-17T00:13:05;102115.97;;;22.49
62180;BMP280;48172;53.374;10.722;2022-10-17T00:15:32;102103.09;;;22.49
62180;BMP280;48172;53.374;10.722;2022-10-17T00:17:59;102098.13;;;22.48
62180;BMP280;48172;53.374;10.722;2022-10-17T00:20:25;102101.16;;;22.50
62180;BMP280;48172;53.374;10.722;2022-10-17T00:22:52;102101.91;;;22.50
62180;BMP280;48172;53.374;10.722;2022-10-17T00:25:18;102098.13;;;22.48
62180;BMP280;48172;53.374;10.722;2022-10-17T00:27:45;102093.84;;;22.47
62180;BMP280;48172;53.374;10.722;2022-10-17T00:30:14;102094.59;;;22.47
62180;BMP280;48172;53.374;10.722;2022-10-17T00:32:41;102103.56;;;22.48
62180;BMP280;48172;53.374;10.722;2022-10-17T00:35:07;102120.31;;;22.46
62180;BMP280;48172;53.374;10.722;2022-10-17T00:37:34;102113.66;;;22.47
62180;BMP280;48172;53.374;10.722;2022-10-17T00:40:01;102111.75;;;22.48
62180;BMP280;48172;53.374;10.722;2022-10-17T00:42:27;102113.34;;;22.45
62180;BMP280;48172;53.374;10.722;2022-10-17T00:47:35;102126.19;;;22.45
62180;BMP280;48172;53.374;10.722;2022-10-17T00:50:04;102139.38;;;22.46
62180;BMP280;48172;53.374;10.722;2022-10-17T00:52:32;102138.63;;;22.46
62180;BMP280;48172;53.374;10.722;2022-10-17T00:55:08;102137.09;;;22.45
62180;BMP280;48172;53.374;10.722;2022-10-17T00:57:36;102133.16;;;22.46
62180;BMP280;48172;53.374;10.722;2022-10-17T01:00:07;102143.00;;;22.43
62180;BMP280;48172;53.374;10.722;2022-10-17T01:02:34;102144.91;;;22.43
62180;BMP280;48172;53.374;10.722;2022-10-17T01:05:01;102138.31;;;22.44
62180;BMP280;48172;53.374;10.722;2022-10-17T01:07:27;102131.31;;;22.43
62180;BMP280;48172;53.374;10.722;2022-10-17T01:10:02;102130.53;;;22.42
62180;BMP280;48172;53.374;10.722;2022-10-17T01:12:31;102124.69;;;22.44
62180;BMP280;48172;53.374;10.722;2022-10-17T01:15:23;102116.16;;;22.42
62180;BMP280;48172;53.374;10.722;2022-10-17T01:21:13;102118.56;;;22.40
62180;BMP280;48172;53.374;10.722;2022-10-17T01:26:43;102115.50;;;22.38
62180;BMP280;48172;53.374;10.722;2022-10-17T01:32:01;102103.06;;;22.37
62180;BMP280;48172;53.374;10.722;2022-10-17T01:34:50;102107.31;;;22.38
62180;BMP280;48172;53.374;10.722;2022-10-17T01:39:51;102102.34;;;22.36
62180;BMP280;48172;53.374;10.722;2022-10-17T01:42:50;102092.19;;;22.37
62180;BMP280;48172;53.374;10.722;2022-10-17T01:45:31;102082.81;;;22.38
62180;BMP280;48172;53.374;10.722;2022-10-17T01:48:02;102089.16;;;22.34
62180;BMP280;48172;53.374;10.722;2022-10-17T01:50:33;102080.22;;;22.34
62180;BMP280;48172;53.374;10.722;2022-10-17T01:53:07;102079.44;;;22.33
62180;BMP280;48172;53.374;10.722;2022-10-17T01:55:39;102084.47;;;22.35
62180;BMP280;48172;53.374;10.722;2022-10-17T01:58:12;102092.28;;;22.33
62180;BMP280;48172;53.374;10.722;2022-10-17T02:00:41;102086.84;;;22.33
62180;BMP280;48172;53.374;10.722;2022-10-17T02:03:13;102098.09;;;22.35
62180;BMP280;48172;53.374;10.722;2022-10-17T02:05:42;102101.56;;;22.36
62180;BMP280;48172;53.374;10.722;2022-10-17T02:08:09;102088.81;;;22.32
62180;BMP280;48172;53.374;10.722;2022-10-17T02:10:46;102100.44;;;22.33
62180;BMP280;48172;53.374;10.722;2022-10-17T02:19:36;102098.19;;;22.31
62180;BMP280;48172;53.374;10.722;2022-10-17T02:22:04;102103.63;;;22.31
62180;BMP280;48172;53.374;10.722;2022-10-17T02:25:13;102100.13;;;22.31
62180;BMP280;48172;53.374;10.722;2022-10-17T02:27:43;102092.75;;;22.31
62180;BMP280;48172;53.374;10.722;2022-10-17T02:30:22;102087.72;;;22.30
62180;BMP280;48172;53.374;10.722;2022-10-17T02:35:21;102092.41;;;22.29
62180;BMP280;48172;53.374;10.722;2022-10-17T02:37:50;102097.84;;;22.29
62180;BMP280;48172;53.374;10.722;2022-10-17T02:40:18;102095.56;;;22.28
62180;BMP280;48172;53.374;10.722;2022-10-17T02:42:48;102079.97;;;22.28
62180;BMP280;48172;53.374;10.722;2022-10-17T02:45:16;102088.16;;;22.28
62180;BMP280;48172;53.374;10.722;2022-10-17T02:47:54;102079.97;;;22.28
62180;BMP280;48172;53.374;10.722;2022-10-17T02:50:26;102083.47;;;22.29
62180;BMP280;48172;53.374;10.722;2022-10-17T02:53:01;102076.50;;;22.28
62180;BMP280;48172;53.374;10.722;2022-10-17T02:55:35;102077.25;;;22.28
62180;BMP280;48172;53.374;10.722;2022-10-17T02:58:09;102071.38;;;22.30
62180;BMP280;48172;53.374;10.722;2022-10-17T03:00:37;102075.75;;;22.27
62180;BMP280;48172;53.374;10.722;2022-10-17T03:03:24;102073.00;;;22.27
62180;BMP280;48172;53.374;10.722;2022-10-17T03:05:52;102073.44;;;22.26
62180;BMP280;48172;53.374;10.722;2022-10-17T03:08:19;102074.22;;;22.26
62180;BMP280;48172;53.374;10.722;2022-10-17T03:10:46;102070.72;;;22.26
62180;BMP280;48172;53.374;10.722;2022-10-17T03:13:14;102067.66;;;22.24
62180;BMP280;48172;53.374;10.722;2022-10-17T03:15:40;102073.13;;;22.24
62180;BMP280;48172;53.374;10.722;2022-10-17T03:18:07;102065.72;;;22.24
62180;BMP280;48172;53.374;10.722;2022-10-17T03:20:34;102060.69;;;22.23
62180;BMP280;48172;53.374;10.722;2022-10-17T03:23:00;102055.25;;;22.23
62180;BMP280;48172;53.374;10.722;2022-10-17T03:25:27;102050.91;;;22.25
62180;BMP280;48172;53.374;10.722;2022-10-17T03:27:53;102050.56;;;22.23
62180;BMP280;48172;53.374;10.722;2022-10-17T03:30:20;102042.81;;;22.22
62180;BMP280;48172;53.374;10.722;2022-10-17T03:32:46;102038.91;;;22.23
62180;BMP280;48172;53.374;10.722;2022-10-17T03:35:13;102042.41;;;22.23
62180;BMP280;48172;53.374;10.722;2022-10-17T03:37:40;102040.88;;;22.22
62180;BMP280;48172;53.374;10.722;2022-10-17T03:40:07;102038.16;;;22.22
62180;BMP280;48172;53.374;10.722;2022-10-17T03:42:33;102045.56;;;22.22
62180;BMP280;48172;53.374;10.722;2022-10-17T03:45:00;102037.38;;;22.22
62180;BMP280;48172;53.374;10.722;2022-10-17T03:47:27;102043.97;;;22.24
62180;BMP280;48172;53.374;10.722;2022-10-17T03:49:54;102040.09;;;22.22
62180;BMP280;48172;53.374;10.722;2022-10-17T03:52:21;102039.69;;;22.23
62180;BMP280;48172;53.374;10.722;2022-10-17T03:54:48;102046.78;;;22.21
62180;BMP280;48172;53.374;10.722;2022-10-17T03:57:17;102046.78;;;22.21
62180;BMP280;48172;53.374;10.722;2022-10-17T03:59:43;102049.81;;;22.23
62180;BMP280;48172;53.374;10.722;2022-10-17T04:02:10;102052.97;;;22.21
62180;BMP280;48172;53.374;10.722;2022-10-17T04:04:36;102049.91;;;22.19
62180;BMP280;48172;53.374;10.722;2022-10-17T04:07:03;102049.91;;;22.19
62180;BMP280;48172;53.374;10.722;2022-10-17T04:09:29;102058.06;;;22.19
62180;BMP280;48172;53.374;10.722;2022-10-17T04:11:56;102053.81;;;22.18
62180;BMP280;48172;53.374;10.722;2022-10-17T04:14:22;102058.06;;;22.19
62180;BMP280;48172;53.374;10.722;2022-10-17T04:16:48;102049.91;;;22.19
62180;BMP280;48172;53.374;10.722;2022-10-17T04:19:15;102044.06;;;22.21
62180;BMP280;48172;53.374;10.722;2022-10-17T04:21:41;102039.81;;;22.20
62180;BMP280;48172;53.374;10.722;2022-10-17T04:24:10;102042.53;;;22.20
62180;BMP280;48172;53.374;10.722;2022-10-17T04:26:37;102029.31;;;22.18
62180;BMP280;48172;53.374;10.722;2022-10-17T04:29:03;102034.75;;;22.18
62180;BMP280;48172;53.374;10.722;2022-10-17T04:31:30;102029.31;;;22.18
62180;BMP280;48172;53.374;10.722;2022-10-17T04:33:56;102029.31;;;22.18
62180;BMP280;48172;53.374;10.722;2022-10-17T04:36:23;102036.72;;;22.18
62180;BMP280;48172;53.374;10.722;2022-10-17T04:38:49;102039.44;;;22.18
62180;BMP280;48172;53.374;10.722;2022-10-17T04:41:17;102041.88;;;22.16
62180;BMP280;48172;53.374;10.722;2022-10-17T04:43:44;102031.75;;;22.16
62180;BMP280;48172;53.374;10.722;2022-10-17T04:46:16;102033.69;;;22.16
62180;BMP280;48172;53.374;10.722;2022-10-17T04:48:42;102032.13;;;22.15
62180;BMP280;48172;53.374;10.722;2022-10-17T04:51:14;102033.69;;;22.16
62180;BMP280;48172;53.374;10.722;2022-10-17T04:53:45;102029.78;;;22.17
62180;BMP280;48172;53.374;10.722;2022-10-17T04:56:17;102021.63;;;22.17
62180;BMP280;48172;53.374;10.722;2022-10-17T04:58:44;102009.59;;;22.14
62180;BMP280;48172;53.374;10.722;2022-10-17T05:01:13;102010.72;;;22.17
62180;BMP280;48172;53.374;10.722;2022-10-17T05:03:40;102011.56;;;22.14
62180;BMP280;48172;53.374;10.722;2022-10-17T05:06:09;102014.28;;;22.14
62180;BMP280;48172;53.374;10.722;2022-10-17T05:08:36;102008.53;;;22.12
62180;BMP280;48172;53.374;10.722;2022-10-17T05:11:03;102015.50;;;22.13
62180;BMP280;48172;53.374;10.722;2022-10-17T05:13:31;102012.03;;;22.12
62180;BMP280;48172;53.374;10.722;2022-10-17T05:15:59;102013.53;;;22.13
62180;BMP280;48172;53.374;10.722;2022-10-17T05:18:27;102015.81;;;22.15
62180;BMP280;48172;53.374;10.722;2022-10-17T05:20:53;102012.03;;;22.12
62180;BMP280;48172;53.374;10.722;2022-10-17T05:23:20;101999.91;;;22.13
62180;BMP280;48172;53.374;10.722;2022-10-17T05:25:46;102008.53;;;22.12
62180;BMP280;48172;53.374;10.722;2022-10-17T05:28:12;102007.00;;;22.11
62180;BMP280;48172;53.374;10.722;2022-10-17T05:30:39;102007.78;;;22.11
62180;BMP280;48172;53.374;10.722;2022-10-17T05:33:05;102007.78;;;22.11
62180;BMP280;48172;53.374;10.722;2022-10-17T05:35:32;102007.78;;;22.11
62180;BMP280;48172;53.374;10.722;2022-10-17T05:37:58;102010.13;;;22.09
62180;BMP280;48172;53.374;10.722;2022-10-17T05:40:25;102017.91;;;22.11
62180;BMP280;48172;53.374;10.722;2022-10-17T05:42:52;102017.09;;;22.10
62180;BMP280;48172;53.374;10.722;2022-10-17T05:45:18;102010.91;;;22.10
62180;BMP280;48172;53.374;10.722;2022-10-17T05:47:45;102015.56;;;22.09
62180;BMP280;48172;53.374;10.722;2022-10-17T05:50:11;102011.34;;;22.08
62180;BMP280;48172;53.374;10.722;2022-10-17T05:52:38;102012.13;;;22.09
62180;BMP280;48172;53.374;10.722;2022-10-17T05:55:06;102014.06;;;22.08
62180;BMP280;48172;53.374;10.722;2022-10-17T05:57:33;102012.56;;;22.07
62180;BMP280;48172;53.374;10.722;2022-10-17T05:59:59;102010.59;;;22.08
62180;BMP280;48172;53.374;10.722;2022-10-17T06:02:26;102016.81;;;22.08
62180;BMP280;48172;53.374;10.722;2022-10-17T06:04:56;102009.41;;;22.09
62180;BMP280;48172;53.374;10.722;2022-10-17T06:07:23;102010.78;;;22.13
62180;BMP280;48172;53.374;10.722;2022-10-17T06:09:49;102019.81;;;22.10
62180;BMP280;48172;53.374;10.722;2022-10-17T06:12:16;102012.78;;;22.13
62180;BMP280;48172;53.374;10.722;2022-10-17T06:14:42;102011.91;;;22.16
62180;BMP280;48172;53.374;10.722;2022-10-17T06:17:09;101999.47;;;22.15
62180;BMP280;48172;53.374;10.722;2022-10-17T06:19:41;102002.19;;;22.15
62180;BMP280;48172;53.374;10.722;2022-10-17T06:22:07;102010.25;;;22.18
62180;BMP280;48172;53.374;10.722;2022-10-17T06:24:34;102020.28;;;22.21
62180;BMP280;48172;53.374;10.722;2022-10-17T06:27:00;102023.00;;;22.21
62180;BMP280;48172;53.374;10.722;2022-10-17T06:29:27;102030.75;;;22.23
62180;BMP280;48172;53.374;10.722;2022-10-17T06:31:53;102039.59;;;22.27
62180;BMP280;48172;53.374;10.722;2022-10-17T06:34:20;102034.38;;;22.32
62180;BMP280;48172;53.374;10.722;2022-10-17T06:36:47;102031.06;;;22.38
62180;BMP280;48172;53.374;10.722;2022-10-17T06:39:13;102041.09;;;22.41
62180;BMP280;48172;53.374;10.722;2022-10-17T06:41:40;102046.88;;;22.43
62180;BMP280;48172;53.374;10.722;2022-10-17T06:44:06;102034.81;;;22.44
62180;BMP280;48172;53.374;10.722;2022-10-17T06:46:37;102040.94;;;22.48
62180;BMP280;48172;53.374;10.722;2022-10-17T06:49:05;102034.59;;;22.51
62180;BMP280;48172;53.374;10.722;2022-10-17T06:51:35;102042.44;;;22.49
62180;BMP280;48172;53.374;10.722;2022-10-17T06:54:02;102041.13;;;22.53
62180;BMP280;48172;53.374;10.722;2022-10-17T06:56:29;102044.19;;;22.55
62180;BMP280;48172;53.374;10.722;2022-10-17T06:58:56;102041.34;;;22.59
62180;BMP280;48172;53.374;10.722;2022-10-17T07:01:22;102044.28;;;22.64
62180;BMP280;48172;53.374;10.722;2022-10-17T07:03:49;102041.13;;;22.66
62180;BMP280;48172;53.374;10.722;2022-10-17T07:06:15;102048.41;;;22.69
62180;BMP280;48172;53.374;10.722;2022-10-17T07:08:44;102041.34;;;22.72
62180;BMP280;48172;53.374;10.722;2022-10-17T07:11:14;102033.03;;;22.75
62180;BMP280;48172;53.374;10.722;2022-10-17T07:13:41;102030.97;;;22.79
62180;BMP280;48172;53.374;10.722;2022-10-17T07:16:07;102031.72;;;22.80
62180;BMP280;48172;53.374;10.722;2022-10-17T07:18:34;102028.44;;;22.85
62180;BMP280;48172;53.374;10.722;2022-10-17T07:21:01;102025.41;;;22.83
62180;BMP280;48172;53.374;10.722;2022-10-17T07:23:27;102029.53;;;22.87
62180;BMP280;48172;53.374;10.722;2022-10-17T07:26:05;102029.09;;;22.89
62180;BMP280;48172;53.374;10.722;2022-10-17T07:28:39;102036.19;;;22.86
62180;BMP280;48172;53.374;10.722;2022-10-17T07:31:13;102036.41;;;22.92
62180;BMP280;48172;53.374;10.722;2022-10-17T07:33:40;102041.44;;;22.93
62180;BMP280;48172;53.374;10.722;2022-10-17T07:36:07;102044.47;;;22.95
62180;BMP280;48172;53.374;10.722;2022-10-17T07:38:35;102038.13;;;22.98
62180;BMP280;48172;53.374;10.722;2022-10-17T07:41:04;102031.50;;;22.99
62180;BMP280;48172;53.374;10.722;2022-10-17T07:43:31;102026.66;;;23.03
62180;BMP280;48172;53.374;10.722;2022-10-17T07:46:00;102031.69;;;23.05
62180;BMP280;48172;53.374;10.722;2022-10-17T07:48:26;102029.72;;;23.06
62180;BMP280;48172;53.374;10.722;2022-10-17T07:50:55;102025.78;;;23.07
62180;BMP280;48172;53.374;10.722;2022-10-17T07:53:22;102037.06;;;23.09
62180;BMP280;48172;53.374;10.722;2022-10-17T07:55:48;102035.38;;;23.11
62180;BMP280;48172;53.374;10.722;2022-10-17T07:58:16;102042.69;;;23.14
62180;BMP280;48172;53.374;10.722;2022-10-17T08:00:43;102036.81;;;23.16
62180;BMP280;48172;53.374;10.722;2022-10-17T08:03:09;102046.47;;;23.17
62180;BMP280;48172;53.374;10.722;2022-10-17T08:05:36;102049.66;;;23.15
62180;BMP280;48172;53.374;10.722;2022-10-17T08:08:02;102049.84;;;23.21
62180;BMP280;48172;53.374;10.722;2022-10-17T08:10:29;102042.44;;;23.21
62180;BMP280;48172;53.374;10.722;2022-10-17T08:12:57;102046.56;;;23.26
62180;BMP280;48172;53.374;10.722;2022-10-17T08:15:24;102041.00;;;23.29
62180;BMP280;48172;53.374;10.722;2022-10-17T08:17:57;102037.41;;;23.32
62180;BMP280;48172;53.374;10.722;2022-10-17T08:20:24;102040.44;;;23.34
62180;BMP280;48172;53.374;10.722;2022-10-17T08:22:54;102043.91;;;23.35
62180;BMP280;48172;53.374;10.722;2022-10-17T08:25:21;102037.91;;;23.40
62180;BMP280;48172;53.374;10.722;2022-10-17T08:27:48;102044.44;;;23.43
62180;BMP280;48172;53.374;10.722;2022-10-17T08:30:15;102033.72;;;23.48
62180;BMP280;48172;53.374;10.722;2022-10-17T08:32:41;102042.69;;;23.49
62180;BMP280;48172;53.374;10.722;2022-10-17T08:35:08;102050.47;;;23.59
62180;BMP280;48172;53.374;10.722;2022-10-17T08:37:35;102048.72;;;23.65
62180;BMP280;48172;53.374;10.722;2022-10-17T08:40:02;102048.56;;;23.69
62180;BMP280;48172;53.374;10.722;2022-10-17T08:47:45;102037.13;;;23.83
62180;BMP280;48172;53.374;10.722;2022-10-17T08:50:28;102038.25;;;23.86
62180;BMP280;48172;53.374;10.722;2022-10-17T08:53:02;102033.06;;;23.88
62180;BMP280;48172;53.374;10.722;2022-10-17T08:55:41;102041.50;;;23.93
62180;BMP280;48172;53.374;10.722;2022-10-17T08:58:18;102036.16;;;23.90
62180;BMP280;48172;53.374;10.722;2022-10-17T09:01:01;102033.59;;;23.95
62180;BMP280;48172;53.374;10.722;2022-10-17T09:06:18;102014.34;;;23.99
62180;BMP280;48172;53.374;10.722;2022-10-17T09:12:00;102004.97;;;24.00
62180;BMP280;48172;53.374;10.722;2022-10-17T09:20:30;102008.03;;;24.11
62180;BMP280;48172;53.374;10.722;2022-10-17T09:23:00;102000.16;;;24.13
62180;BMP280;48172;53.374;10.722;2022-10-17T09:25:28;102008.34;;;24.13
62180;BMP280;48172;53.374;10.722;2022-10-17T09:28:17;102005.63;;;24.13
62180;BMP280;48172;53.374;10.722;2022-10-17T09:30:56;102009.28;;;24.19
62180;BMP280;48172;53.374;10.722;2022-10-17T09:33:28;102013.09;;;24.22
62180;BMP280;48172;53.374;10.722;2022-10-17T09:36:17;102011.41;;;24.24
62180;BMP280;48172;53.374;10.722;2022-10-17T09:38:51;102014.47;;;24.26
62180;BMP280;48172;53.374;10.722;2022-10-17T09:41:29;102009.94;;;24.32
62180;BMP280;48172;53.374;10.722;2022-10-17T09:44:18;101997.19;;;24.38
62180;BMP280;48172;53.374;10.722;2022-10-17T09:49:43;102005.41;;;24.48
62180;BMP280;48172;53.374;10.722;2022-10-17T09:52:17;102012.28;;;24.52
62180;BMP280;48172;53.374;10.722;2022-10-17T09:55:11;102016.38;;;24.57
62180;BMP280;48172;53.374;10.722;2022-10-17T10:00:22;102013.66;;;24.66
62180;BMP280;48172;53.374;10.722;2022-10-17T10:02:49;102013.53;;;24.69
62180;BMP280;48172;53.374;10.722;2022-10-17T10:05:17;102019.63;;;24.73
62180;BMP280;48172;53.374;10.722;2022-10-17T10:08:00;102020.25;;;24.77
62180;BMP280;48172;53.374;10.722;2022-10-17T10:10:29;102023.72;;;24.78
62180;BMP280;48172;53.374;10.722;2022-10-17T10:15:42;102020.25;;;24.77
62180;BMP280;48172;53.374;10.722;2022-10-17T10:21:20;102035.88;;;24.77
62180;BMP280;48172;53.374;10.722;2022-10-17T10:26:49;102033.13;;;24.77
62180;BMP280;48172;53.374;10.722;2022-10-17T10:29:37;102030.41;;;24.77
62180;BMP280;48172;53.374;10.722;2022-10-17T10:34:55;102037.06;;;24.76
62180;BMP280;48172;53.374;10.722;2022-10-17T10:37:28;102039.03;;;24.75
62180;BMP280;48172;53.374;10.722;2022-10-17T10:39:57;102028.56;;;24.74
62180;BMP280;48172;53.374;10.722;2022-10-17T10:42:33;102030.09;;;24.75
62180;BMP280;48172;53.374;10.722;2022-10-17T10:45:16;102034.81;;;24.74
62180;BMP280;48172;53.374;10.722;2022-10-17T10:50:45;102026.28;;;24.72
62180;BMP280;48172;53.374;10.722;2022-10-17T10:56:41;102020.50;;;24.70
62180;BMP280;48172;53.374;10.722;2022-10-17T10:59:16;102019.63;;;24.73
62180;BMP280;48172;53.374;10.722;2022-10-17T11:02:14;102027.06;;;24.73
62180;BMP280;48172;53.374;10.722;2022-10-17T11:04:47;102025.06;;;24.73
62180;BMP280;48172;53.374;10.722;2022-10-17T11:07:39;102022.34;;;24.73
62180;BMP280;48172;53.374;10.722;2022-10-17T11:10:23;102035.25;;;24.73
62180;BMP280;48172;53.374;10.722;2022-10-17T11:15:54;102021.13;;;24.74
62180;BMP280;48172;53.374;10.722;2022-10-17T11:18:32;102020.25;;;24.77
62180;BMP280;48172;53.374;10.722;2022-10-17T11:23:42;102016.44;;;24.75
62180;BMP280;48172;53.374;10.722;2022-10-17T11:26:25;102031.16;;;24.77
62180;BMP280;48172;53.374;10.722;2022-10-17T11:28:53;102035.88;;;24.77
62180;BMP280;48172;53.374;10.722;2022-10-17T11:31:22;102038.88;;;24.70
62180;BMP280;48172;53.374;10.722;2022-10-17T11:34:03;102036.44;;;24.72
62180;BMP280;48172;53.374;10.722;2022-10-17T11:36:34;102032.06;;;24.74
62180;BMP280;48172;53.374;10.722;2022-10-17T11:39:39;102037.97;;;24.73
62180;BMP280;48172;53.374;10.722;2022-10-17T11:42:33;102042.09;;;24.77
62180;BMP280;48172;53.374;10.722;2022-10-17T11:45:06;102039.03;;;24.75
62180;BMP280;48172;53.374;10.722;2022-10-17T11:50:24;102031.31;;;24.74
62180;BMP280;48172;53.374;10.722;2022-10-17T11:53:18;102028.25;;;24.72
62180;BMP280;48172;53.374;10.722;2022-10-17T11:55:46;102034.81;;;24.74
62180;BMP280;48172;53.374;10.722;2022-10-17T12:07:12;102022.22;;;24.77
62180;BMP280;48172;53.374;10.722;2022-10-17T12:12:46;101999.72;;;24.73
62180;BMP280;48172;53.374;10.722;2022-10-17T12:18:00;101998.50;;;24.74
62180;BMP280;48172;53.374;10.722;2022-10-17T12:20:31;101998.34;;;24.68
62180;BMP280;48172;53.374;10.722;2022-10-17T12:23:03;101994.88;;;24.68
62180;BMP280;48172;53.374;10.722;2022-10-17T12:25:32;101998.47;;;24.65
62180;BMP280;48172;53.374;10.722;2022-10-17T12:28:13;101996.22;;;24.63
62180;BMP280;48172;53.374;10.722;2022-10-17T12:38:45;102002.59;;;24.60
62180;BMP280;48172;53.374;10.722;2022-10-17T12:41:15;102010.03;;;24.60
62180;BMP280;48172;53.374;10.722;2022-10-17T12:43:45;102021.09;;;24.56
62180;BMP280;48172;53.374;10.722;2022-10-17T12:46:47;102039.59;;;24.52
62180;BMP280;48172;53.374;10.722;2022-10-17T12:54:49;102031.84;;;24.51
62180;BMP280;48172;53.374;10.722;2022-10-17T13:03:42;102035.47;;;24.48
62180;BMP280;48172;53.374;10.722;2022-10-17T13:06:19;102044.44;;;24.48
62180;BMP280;48172;53.374;10.722;2022-10-17T13:08:51;102041.69;;;24.48
62180;BMP280;48172;53.374;10.722;2022-10-17T13:11:28;102035.19;;;24.46
62180;BMP280;48172;53.374;10.722;2022-10-17T13:13:57;102043.38;;;24.46
62180;BMP280;48172;53.374;10.722;2022-10-17T13:16:31;102045.78;;;24.43
62180;BMP280;48172;53.374;10.722;2022-10-17T13:18:59;102055.50;;;24.44
62180;BMP280;48172;53.374;10.722;2022-10-17T13:21:26;102060.97;;;24.44
62180;BMP280;48172;53.374;10.722;2022-10-17T13:23:54;102063.72;;;24.44
62180;BMP280;48172;53.374;10.722;2022-10-17T13:26:25;102064.03;;;24.47
62180;BMP280;48172;53.374;10.722;2022-10-17T13:31:39;102071.13;;;24.44
62180;BMP280;48172;53.374;10.722;2022-10-17T13:34:15;102082.97;;;24.41
62180;BMP280;48172;53.374;10.722;2022-10-17T13:36:43;102082.97;;;24.41
62180;BMP280;48172;53.374;10.722;2022-10-17T13:39:17;102081.63;;;24.46
62180;BMP280;48172;53.374;10.722;2022-10-17T13:41:57;102090.09;;;24.48
62180;BMP280;48172;53.374;10.722;2022-10-17T13:44:26;102090.75;;;24.52
62180;BMP280;48172;53.374;10.722;2022-10-17T13:46:53;102079.53;;;24.50
62180;BMP280;48172;53.374;10.722;2022-10-17T13:49:33;102097.41;;;24.51
62180;BMP280;48172;53.374;10.722;2022-10-17T13:52:02;102089.34;;;24.47
62180;BMP280;48172;53.374;10.722;2022-10-17T13:54:38;102100.63;;;24.49
62180;BMP280;48172;53.374;10.722;2022-10-17T13:59:51;102116.66;;;24.47
62180;BMP280;48172;53.374;10.722;2022-10-17T14:02:21;102119.28;;;24.51
62180;BMP280;48172;53.374;10.722;2022-10-17T14:08:02;102113.81;;;24.51
62180;BMP280;48172;53.374;10.722;2022-10-17T14:10:43;102129.47;;;24.50
62180;BMP280;48172;53.374;10.722;2022-10-17T14:13:20;102129.47;;;24.50
62180;BMP280;48172;53.374;10.722;2022-10-17T14:15:50;102131.28;;;24.53
62180;BMP280;48172;53.374;10.722;2022-10-17T14:18:23;102104.13;;;24.50
62180;BMP280;48172;53.374;10.722;2022-10-17T14:20:51;102094.22;;;24.52
62180;BMP280;48172;53.374;10.722;2022-10-17T14:23:42;102121.13;;;24.54
62180;BMP280;48172;53.374;10.722;2022-10-17T14:26:21;102115.69;;;24.54
62180;BMP280;48172;53.374;10.722;2022-10-17T14:29:19;102124.41;;;24.49
62180;BMP280;48172;53.374;10.722;2022-10-17T14:31:47;102127.59;;;24.47
62180;BMP280;48172;53.374;10.722;2022-10-17T14:34:28;102108.31;;;24.41
62180;BMP280;48172;53.374;10.722;2022-10-17T14:36:55;102114.22;;;24.40
62180;BMP280;48172;53.374;10.722;2022-10-17T14:39:24;102116.63;;;24.38
62180;BMP280;48172;53.374;10.722;2022-10-17T14:41:51;102096.47;;;24.35
62180;BMP280;48172;53.374;10.722;2022-10-17T14:44:25;102097.34;;;24.32
62180;BMP280;48172;53.374;10.722;2022-10-17T14:47:01;102105.22;;;24.30
62180;BMP280;48172;53.374;10.722;2022-10-17T14:49:50;102102.19;;;24.28
62180;BMP280;48172;53.374;10.722;2022-10-17T14:54:48;102104.41;;;24.21
62180;BMP280;48172;53.374;10.722;2022-10-17T14:57:38;102097.41;;;24.20
62180;BMP280;48172;53.374;10.722;2022-10-17T15:00:06;102088.59;;;24.16
62180;BMP280;48172;53.374;10.722;2022-10-17T15:02:33;102111.66;;;24.15
62180;BMP280;48172;53.374;10.722;2022-10-17T15:05:00;102119.84;;;24.15
62180;BMP280;48172;53.374;10.722;2022-10-17T15:07:26;102114.84;;;24.13
62180;BMP280;48172;53.374;10.722;2022-10-17T15:09:52;102121.94;;;24.11
62180;BMP280;48172;53.374;10.722;2022-10-17T15:12:21;102139.53;;;24.09
62180;BMP280;48172;53.374;10.722;2022-10-17T15:14:49;102139.25;;;24.07
62180;BMP280;48172;53.374;10.722;2022-10-17T15:17:28;102149.81;;;24.05
62180;BMP280;48172;53.374;10.722;2022-10-17T15:19:56;102158.91;;;24.02
62180;BMP280;48172;53.374;10.722;2022-10-17T15:22:23;102158.28;;;23.98
62180;BMP280;48172;53.374;10.722;2022-10-17T15:24:49;102165.72;;;23.98
62180;BMP280;48172;53.374;10.722;2022-10-17T15:27:21;102172.81;;;23.95
62180;BMP280;48172;53.374;10.722;2022-10-17T15:29:49;102183.09;;;23.91
62180;BMP280;48172;53.374;10.722;2022-10-17T15:32:16;102185.03;;;23.91
62180;BMP280;48172;53.374;10.722;2022-10-17T15:34:43;102184.41;;;23.87
62180;BMP280;48172;53.374;10.722;2022-10-17T15:37:15;102181.38;;;23.85
62180;BMP280;48172;53.374;10.722;2022-10-17T15:39:42;102185.16;;;23.87
62180;BMP280;48172;53.374;10.722;2022-10-17T15:42:11;102176.31;;;23.83
62180;BMP280;48172;53.374;10.722;2022-10-17T15:44:40;102181.03;;;23.83
62180;BMP280;48172;53.374;10.722;2022-10-17T15:47:23;102181.94;;;23.80
62180;BMP280;48172;53.374;10.722;2022-10-17T15:49:50;102184.34;;;23.78
62180;BMP280;48172;53.374;10.722;2022-10-17T15:52:17;102191.00;;;23.77
62180;BMP280;48172;53.374;10.722;2022-10-17T15:54:43;102195.41;;;23.74
62180;BMP280;48172;53.374;10.722;2022-10-17T15:57:18;102196.56;;;23.73
62180;BMP280;48172;53.374;10.722;2022-10-17T15:59:45;102191.09;;;23.73
62180;BMP280;48172;53.374;10.722;2022-10-17T16:02:14;102198.25;;;23.70